sensor_id;sensor_type;location;lat;lon;timestamp;temperature;humidity
37240;DHT22;23130;48.760;9.178;2023-03-25T00:02:20;8.10;99.90
37240;DHT22;23130;48.760;9.178;2023-03-25T00:04:49;8.10;99.90
37240;DHT22;23130;48.760;9.178;2023-03-25T00:07:15;8.00;99.90
37240;DHT22;23130;48.760;9.178;2023-03-25T00:09:43;7.90;99.90
37240;DHT22;23130;48.760;9.178;2023-03-25T00:12:08;7.80;99.90
37240;DHT22;23130;48.760;9.178;2023-03-25T00:14:34;7.80;99.90
37240;DHT22;23130;48.760;9.178;2023-03-25T00:16:59;7.70;99.90
37240;DHT22;23130;48.760;9.178;2023-03-25T00:19:26;7.60;99.90
37240;DHT22;23130;48.760;9.178;2023-03-25T00:21:51;7.60;99.90
37240;DHT22;23130;48.760;9.178;2023-03-25T00:24:18;7.50;99.90
37240;DHT22;23130;48.760;9.178;2023-03-25T00:26:45;7.40;99.90
37240;DHT22;23130;48.760;9.178;2023-03-25T00:29:13;7.30;99.90
37240;DHT22;23130;48.760;9.178;2023-03-25T00:31:40;7.30;99.90
37240;DHT22;23130;48.760;9.178;2023-03-25T00:34:06;7.20;99.90
37240;DHT22;23130;48.760;9.178;2023-03-25T00:36:32;7.20;99.90
37240;DHT22;23130;48.760;9.178;2023-03-25T00:38:57;7.10;99.90
37240;DHT22;23130;48.760;9.178;2023-03-25T00:41:24;7.10;99.90
37240;DHT22;23130;48.760;9.178;2023-03-25T00:43:52;7.00;99.90
37240;DHT22;23130;48.760;9.178;2023-03-25T00:46:18;6.90;99.90
37240;DHT22;23130;48.760;9.178;2023-03-25T00:48:44;6.90;99.90
37240;DHT22;23130;48.760;9.178;2023-03-25T00:51:10;6.80;99.90
37240;DHT22;23130;48.760;9.178;2023-03-25T00:53:39;6.80;99.90
37240;DHT22;23130;48.760;9.178;2023-03-25T00:56:06;6.80;99.90
37240;DHT22;23130;48.760;9.178;2023-03-25T00:58:32;6.70;99.90
37240;DHT22;23130;48.760;9.178;2023-03-25T01:00:58;6.80;99.90
37240;DHT22;23130;48.760;9.178;2023-03-25T01:03:27;6.80;99.90
37240;DHT22;23130;48.760;9.178;2023-03-25T01:05:55;6.90;99.90
37240;DHT22;23130;48.760;9.178;2023-03-25T01:08:22;6.80;99.90
37240;DHT22;23130;48.760;9.178;2023-03-25T01:10:54;6.80;99.90
37240;DHT22;23130;48.760;9.178;2023-03-25T01:13:20;6.90;99.90
37240;DHT22;23130;48.760;9.178;2023-03-25T01:15:46;6.90;99.90
37240;DHT22;23130;48.760;9.178;2023-03-25T01:18:12;6.90;99.90
37240;DHT22;23130;48.760;9.178;2023-03-25T01:20:38;6.80;99.90
37240;DHT22;23130;48.760;9.178;2023-03-25T01:23:04;6.80;99.90
37240;DHT22;23130;48.760;9.178;2023-03-25T01:25:30;6.80;99.90
37240;DHT22;23130;48.760;9.178;2023-03-25T01:27:55;6.70;99.90
37240;DHT22;23130;48.760;9.178;2023-03-25T01:30:21;6.70;99.90
37240;DHT22;23130;48.760;9.178;2023-03-25T01:32:47;6.70;99.90
37240;DHT22;23130;48.760;9.178;2023-03-25T01:35:12;6.70;99.90
37240;DHT22;23130;48.760;9.178;2023-03-25T01:37:38;6.60;99.90
37240;DHT22;23130;48.760;9.178;2023-03-25T01:40:05;6.70;99.90
37240;DHT22;23130;48.760;9.178;2023-03-25T01:42:34;6.70;99.90
37240;DHT22;23130;48.760;9.178;2023-03-25T01:45:21;6.70;99.90
37240;DHT22;23130;48.760;9.178;2023-03-25T01:47:53;6.80;99.90
37240;DHT22;23130;48.760;9.178;2023-03-25T01:50:20;6.80;99.90
37240;DHT22;23130;48.760;9.178;2023-03-25T01:52:49;7.10;99.90
37240;DHT22;23130;48.760;9.178;2023-03-25T01:55:16;7.10;99.90
37240;DHT22;23130;48.760;9.178;2023-03-25T01:57:43;7.10;99.90
37240;DHT22;23130;48.760;9.178;2023-03-25T02:00:12;7.10;99.90
37240;DHT22;23130;48.760;9.178;2023-03-25T02:02:39;7.10;99.90
37240;DHT22;23130;48.760;9.178;2023-03-25T02:05:32;7.20;99.90
37240;DHT22;23130;48.760;9.178;2023-03-25T02:08:01;7.10;99.90
37240;DHT22;23130;48.760;9.178;2023-03-25T02:10:29;7.00;99.90
37240;DHT22;23130;48.760;9.178;2023-03-25T02:12:55;6.90;99.90
37240;DHT22;23130;48.760;9.178;2023-03-25T02:15:21;6.90;99.90
37240;DHT22;23130;48.760;9.178;2023-03-25T02:18:06;6.80;99.90
37240;DHT22;23130;48.760;9.178;2023-03-25T02:24:12;6.70;99.90
37240;DHT22;23130;48.760;9.178;2023-03-25T02:33:14;6.90;99.90
37240;DHT22;23130;48.760;9.178;2023-03-25T02:39:13;7.10;99.90
37240;DHT22;23130;48.760;9.178;2023-03-25T02:44:35;7.20;99.90
37240;DHT22;23130;48.760;9.178;2023-03-25T02:47:06;7.30;99.90
37240;DHT22;23130;48.760;9.178;2023-03-25T02:49:36;7.30;99.90
37240;DHT22;23130;48.760;9.178;2023-03-25T02:52:11;7.30;99.90
37240;DHT22;23130;48.760;9.178;2023-03-25T02:54:40;7.30;99.90
37240;DHT22;23130;48.760;9.178;2023-03-25T02:57:07;7.30;99.90
37240;DHT22;23130;48.760;9.178;2023-03-25T02:59:34;7.30;99.90
37240;DHT22;23130;48.760;9.178;2023-03-25T03:02:05;7.30;99.90
37240;DHT22;23130;48.760;9.178;2023-03-25T03:04:42;7.20;99.90
37240;DHT22;23130;48.760;9.178;2023-03-25T03:07:09;7.10;99.90
37240;DHT22;23130;48.760;9.178;2023-03-25T03:09:44;7.20;99.90
37240;DHT22;23130;48.760;9.178;2023-03-25T03:12:39;7.10;99.90
37240;DHT22;23130;48.760;9.178;2023-03-25T03:20:58;6.90;99.90
37240;DHT22;23130;48.760;9.178;2023-03-25T03:23:28;6.70;99.90
37240;DHT22;23130;48.760;9.178;2023-03-25T03:28:43;6.60;99.90
37240;DHT22;23130;48.760;9.178;2023-03-25T03:31:19;6.50;99.90
37240;DHT22;23130;48.760;9.178;2023-03-25T03:34:04;6.50;99.90
37240;DHT22;23130;48.760;9.178;2023-03-25T03:36:38;6.50;99.90
37240;DHT22;23130;48.760;9.178;2023-03-25T03:39:12;6.50;99.90
37240;DHT22;23130;48.760;9.178;2023-03-25T03:41:42;6.50;99.90
37240;DHT22;23130;48.760;9.178;2023-03-25T03:44:16;6.40;99.90
37240;DHT22;23130;48.760;9.178;2023-03-25T03:46:50;6.40;99.90
37240;DHT22;23130;48.760;9.178;2023-03-25T03:49:22;6.40;99.90
37240;DHT22;23130;48.760;9.178;2023-03-25T03:51:54;6.30;99.90
37240;DHT22;23130;48.760;9.178;2023-03-25T03:54:34;6.30;99.90
37240;DHT22;23130;48.760;9.178;2023-03-25T03:57:15;6.30;99.90
37240;DHT22;23130;48.760;9.178;2023-03-25T03:59:58;6.30;99.90
37240;DHT22;23130;48.760;9.178;2023-03-25T04:02:41;6.20;99.90
37240;DHT22;23130;48.760;9.178;2023-03-25T04:05:11;6.30;99.90
37240;DHT22;23130;48.760;9.178;2023-03-25T04:07:44;6.20;99.90
37240;DHT22;23130;48.760;9.178;2023-03-25T04:10:32;6.20;99.90
37240;DHT22;23130;48.760;9.178;2023-03-25T04:13:05;6.20;99.90
37240;DHT22;23130;48.760;9.178;2023-03-25T04:15:32;6.20;99.90
37240;DHT22;23130;48.760;9.178;2023-03-25T04:17:58;6.20;99.90
37240;DHT22;23130;48.760;9.178;2023-03-25T04:20:24;6.10;99.90
37240;DHT22;23130;48.760;9.178;2023-03-25T04:22:54;6.10;99.90
37240;DHT22;23130;48.760;9.178;2023-03-25T04:25:19;6.00;99.90
37240;DHT22;23130;48.760;9.178;2023-03-25T04:27:50;6.00;99.90
37240;DHT22;23130;48.760;9.178;2023-03-25T04:30:18;5.90;99.90
37240;DHT22;23130;48.760;9.178;2023-03-25T04:32:44;5.90;99.90
37240;DHT22;23130;48.760;9.178;2023-03-25T04:35:17;5.80;99.90
37240;DHT22;23130;48.760;9.178;2023-03-25T04:37:43;5.80;99.90
37240;DHT22;23130;48.760;9.178;2023-03-25T04:40:11;5.70;99.90
37240;DHT22;23130;48.760;9.178;2023-03-25T04:42:38;5.70;99.90
37240;DHT22;23130;48.760;9.178;2023-03-25T04:45:07;5.70;99.90
37240;DHT22;23130;48.760;9.178;2023-03-25T04:47:38;5.70;99.90
37240;DHT22;23130;48.760;9.178;2023-03-25T04:50:19;5.60;99.90
37240;DHT22;23130;48.760;9.178;2023-03-25T04:52:47;5.50;99.90
37240;DHT22;23130;48.760;9.178;2023-03-25T04:55:13;5.50;99.90
37240;DHT22;23130;48.760;9.178;2023-03-25T04:57:48;5.40;99.90
37240;DHT22;23130;48.760;9.178;2023-03-25T05:00:16;5.40;99.90
37240;DHT22;23130;48.760;9.178;2023-03-25T05:02:43;5.40;99.90
37240;DHT22;23130;48.760;9.178;2023-03-25T05:05:11;5.40;99.90
37240;DHT22;23130;48.760;9.178;2023-03-25T05:07:51;5.40;99.90
37240;DHT22;23130;48.760;9.178;2023-03-25T05:10:19;5.40;99.90
37240;DHT22;23130;48.760;9.178;2023-03-25T05:12:45;5.40;99.90
37240;DHT22;23130;48.760;9.178;2023-03-25T05:15:12;5.50;99.90
37240;DHT22;23130;48.760;9.178;2023-03-25T05:17:38;5.60;99.90
37240;DHT22;23130;48.760;9.178;2023-03-25T05:20:04;5.70;99.90
37240;DHT22;23130;48.760;9.178;2023-03-25T05:22:35;5.80;99.90
37240;DHT22;23130;48.760;9.178;2023-03-25T05:25:03;6.00;99.90
37240;DHT22;23130;48.760;9.178;2023-03-25T05:27:31;6.10;99.90
37240;DHT22;23130;48.760;9.178;2023-03-25T05:29:56;6.30;99.90
37240;DHT22;23130;48.760;9.178;2023-03-25T05:32:23;6.40;99.90
37240;DHT22;23130;48.760;9.178;2023-03-25T05:34:50;6.50;99.90
37240;DHT22;23130;48.760;9.178;2023-03-25T05:37:17;6.60;99.90
37240;DHT22;23130;48.760;9.178;2023-03-25T05:39:43;6.60;99.90
37240;DHT22;23130;48.760;9.178;2023-03-25T05:42:09;6.60;99.90
37240;DHT22;23130;48.760;9.178;2023-03-25T05:44:35;6.60;99.90
37240;DHT22;23130;48.760;9.178;2023-03-25T05:47:00;6.60;99.90
37240;DHT22;23130;48.760;9.178;2023-03-25T05:49:27;6.70;99.90
37240;DHT22;23130;48.760;9.178;2023-03-25T05:51:52;6.70;99.90
37240;DHT22;23130;48.760;9.178;2023-03-25T05:54:21;6.80;99.90
37240;DHT22;23130;48.760;9.178;2023-03-25T05:56:49;6.90;99.90
37240;DHT22;23130;48.760;9.178;2023-03-25T05:59:15;6.90;99.90
37240;DHT22;23130;48.760;9.178;2023-03-25T06:01:41;6.90;99.90
37240;DHT22;23130;48.760;9.178;2023-03-25T06:04:10;6.90;99.90
37240;DHT22;23130;48.760;9.178;2023-03-25T06:06:37;6.90;99.90
37240;DHT22;23130;48.760;9.178;2023-03-25T06:09:05;6.90;99.90
37240;DHT22;23130;48.760;9.178;2023-03-25T06:11:31;7.10;99.90
37240;DHT22;23130;48.760;9.178;2023-03-25T06:14:03;7.10;99.90
37240;DHT22;23130;48.760;9.178;2023-03-25T06:16:29;7.10;99.90
37240;DHT22;23130;48.760;9.178;2023-03-25T06:18:56;7.10;99.90
37240;DHT22;23130;48.760;9.178;2023-03-25T06:21:25;7.20;99.90
37240;DHT22;23130;48.760;9.178;2023-03-25T06:23:51;7.20;99.90
37240;DHT22;23130;48.760;9.178;2023-03-25T06:26:19;7.30;99.90
37240;DHT22;23130;48.760;9.178;2023-03-25T06:28:45;7.40;99.90
37240;DHT22;23130;48.760;9.178;2023-03-25T06:31:15;7.50;99.90
37240;DHT22;23130;48.760;9.178;2023-03-25T06:33:46;7.50;99.90
37240;DHT22;23130;48.760;9.178;2023-03-25T06:36:14;7.60;99.90
37240;DHT22;23130;48.760;9.178;2023-03-25T06:38:43;7.80;99.90
37240;DHT22;23130;48.760;9.178;2023-03-25T06:41:10;7.80;99.90
37240;DHT22;23130;48.760;9.178;2023-03-25T06:43:36;8.50;99.90
37240;DHT22;23130;48.760;9.178;2023-03-25T06:46:02;9.30;99.90
37240;DHT22;23130;48.760;9.178;2023-03-25T06:48:28;10.00;99.90
37240;DHT22;23130;48.760;9.178;2023-03-25T06:50:54;10.40;99.90
37240;DHT22;23130;48.760;9.178;2023-03-25T06:53:19;10.90;99.90
37240;DHT22;23130;48.760;9.178;2023-03-25T06:55:45;11.30;99.90
37240;DHT22;23130;48.760;9.178;2023-03-25T06:58:11;11.40;99.90
37240;DHT22;23130;48.760;9.178;2023-03-25T07:00:37;11.60;99.90
37240;DHT22;23130;48.760;9.178;2023-03-25T07:03:02;11.30;99.90
37240;DHT22;23130;48.760;9.178;2023-03-25T07:05:28;10.80;99.90
37240;DHT22;23130;48.760;9.178;2023-03-25T07:07:54;10.30;99.90
37240;DHT22;23130;48.760;9.178;2023-03-25T07:10:19;9.80;99.90
37240;DHT22;23130;48.760;9.178;2023-03-25T07:12:45;9.60;99.90
37240;DHT22;23130;48.760;9.178;2023-03-25T07:15:11;9.30;99.90
37240;DHT22;23130;48.760;9.178;2023-03-25T07:17:36;9.00;99.90
37240;DHT22;23130;48.760;9.178;2023-03-25T07:20:05;8.80;99.90
37240;DHT22;23130;48.760;9.178;2023-03-25T07:22:31;8.80;99.90
37240;DHT22;23130;48.760;9.178;2023-03-25T07:24:56;8.70;99.90
37240;DHT22;23130;48.760;9.178;2023-03-25T07:27:23;8.70;99.90
37240;DHT22;23130;48.760;9.178;2023-03-25T07:29:48;8.60;99.90
37240;DHT22;23130;48.760;9.178;2023-03-25T07:32:14;8.70;99.90
37240;DHT22;23130;48.760;9.178;2023-03-25T07:34:40;8.70;99.90
37240;DHT22;23130;48.760;9.178;2023-03-25T07:37:06;8.80;99.90
37240;DHT22;23130;48.760;9.178;2023-03-25T07:39:32;8.90;99.90
37240;DHT22;23130;48.760;9.178;2023-03-25T07:41:58;9.10;99.90
37240;DHT22;23130;48.760;9.178;2023-03-25T07:44:23;9.30;99.90
37240;DHT22;23130;48.760;9.178;2023-03-25T07:46:49;9.40;99.90
37240;DHT22;23130;48.760;9.178;2023-03-25T07:49:15;9.50;99.90
37240;DHT22;23130;48.760;9.178;2023-03-25T07:51:42;9.50;99.90
37240;DHT22;23130;48.760;9.178;2023-03-25T07:54:08;9.60;99.90
37240;DHT22;23130;48.760;9.178;2023-03-25T07:56:34;9.70;99.90
37240;DHT22;23130;48.760;9.178;2023-03-25T07:58:59;9.70;99.90
37240;DHT22;23130;48.760;9.178;2023-03-25T08:01:25;9.70;99.90
37240;DHT22;23130;48.760;9.178;2023-03-25T08:03:51;9.70;99.90
37240;DHT22;23130;48.760;9.178;2023-03-25T08:06:16;9.90;99.90
37240;DHT22;23130;48.760;9.178;2023-03-25T08:08:42;10.00;99.90
37240;DHT22;23130;48.760;9.178;2023-03-25T08:11:07;10.10;99.90
37240;DHT22;23130;48.760;9.178;2023-03-25T08:13:33;10.00;99.90
37240;DHT22;23130;48.760;9.178;2023-03-25T08:15:59;10.00;99.90
37240;DHT22;23130;48.760;9.178;2023-03-25T08:18:25;10.00;99.90
37240;DHT22;23130;48.760;9.178;2023-03-25T08:20:51;10.00;99.90
37240;DHT22;23130;48.760;9.178;2023-03-25T08:23:17;10.00;99.90
37240;DHT22;23130;48.760;9.178;2023-03-25T08:25:45;10.10;99.90
37240;DHT22;23130;48.760;9.178;2023-03-25T08:28:13;10.20;99.90
37240;DHT22;23130;48.760;9.178;2023-03-25T08:30:42;10.40;99.90
37240;DHT22;23130;48.760;9.178;2023-03-25T08:33:08;10.50;99.90
37240;DHT22;23130;48.760;9.178;2023-03-25T08:35:35;10.60;99.90
37240;DHT22;23130;48.760;9.178;2023-03-25T08:38:01;10.70;99.90
37240;DHT22;23130;48.760;9.178;2023-03-25T08:40:34;10.60;99.90
37240;DHT22;23130;48.760;9.178;2023-03-25T08:43:02;10.50;99.90
37240;DHT22;23130;48.760;9.178;2023-03-25T08:45:28;10.20;99.90
37240;DHT22;23130;48.760;9.178;2023-03-25T08:47:56;10.00;99.90
37240;DHT22;23130;48.760;9.178;2023-03-25T08:50:21;9.50;99.90
37240;DHT22;23130;48.760;9.178;2023-03-25T08:52:47;9.10;99.90
37240;DHT22;23130;48.760;9.178;2023-03-25T08:55:13;9.20;99.90
37240;DHT22;23130;48.760;9.178;2023-03-25T08:57:41;9.30;99.90
37240;DHT22;23130;48.760;9.178;2023-03-25T09:00:07;9.20;99.90
37240;DHT22;23130;48.760;9.178;2023-03-25T09:02:40;9.00;99.90
37240;DHT22;23130;48.760;9.178;2023-03-25T09:05:07;8.90;99.90
37240;DHT22;23130;48.760;9.178;2023-03-25T09:07:33;8.80;99.90
37240;DHT22;23130;48.760;9.178;2023-03-25T09:10:00;8.90;99.90
37240;DHT22;23130;48.760;9.178;2023-03-25T09:12:26;8.80;99.90
37240;DHT22;23130;48.760;9.178;2023-03-25T09:14:51;8.60;99.90
37240;DHT22;23130;48.760;9.178;2023-03-25T09:17:17;8.50;99.90
37240;DHT22;23130;48.760;9.178;2023-03-25T09:19:42;8.50;99.90
37240;DHT22;23130;48.760;9.178;2023-03-25T09:22:08;8.60;99.90
37240;DHT22;23130;48.760;9.178;2023-03-25T09:24:34;8.70;99.90
37240;DHT22;23130;48.760;9.178;2023-03-25T09:27:00;8.80;99.90
37240;DHT22;23130;48.760;9.178;2023-03-25T09:29:27;9.10;99.90
37240;DHT22;23130;48.760;9.178;2023-03-25T09:31:52;9.40;99.90
37240;DHT22;23130;48.760;9.178;2023-03-25T09:34:18;9.60;99.90
37240;DHT22;23130;48.760;9.178;2023-03-25T09:36:44;9.70;99.90
37240;DHT22;23130;48.760;9.178;2023-03-25T09:39:10;10.00;99.90
37240;DHT22;23130;48.760;9.178;2023-03-25T09:47:03;10.70;99.90
37240;DHT22;23130;48.760;9.178;2023-03-25T09:49:37;11.00;99.90
37240;DHT22;23130;48.760;9.178;2023-03-25T09:52:06;11.10;99.90
37240;DHT22;23130;48.760;9.178;2023-03-25T09:54:46;11.40;99.90
37240;DHT22;23130;48.760;9.178;2023-03-25T09:57:17;11.50;99.90
37240;DHT22;23130;48.760;9.178;2023-03-25T09:59:48;11.60;99.90
37240;DHT22;23130;48.760;9.178;2023-03-25T10:02:26;11.70;99.90
37240;DHT22;23130;48.760;9.178;2023-03-25T10:11:06;12.10;99.90
37240;DHT22;23130;48.760;9.178;2023-03-25T10:13:51;12.10;99.90
37240;DHT22;23130;48.760;9.178;2023-03-25T10:16:41;11.90;99.90
37240;DHT22;23130;48.760;9.178;2023-03-25T10:22:41;11.00;99.90
37240;DHT22;23130;48.760;9.178;2023-03-25T10:25:19;10.90;99.90
37240;DHT22;23130;48.760;9.178;2023-03-25T10:27:49;11.10;99.90
37240;DHT22;23130;48.760;9.178;2023-03-25T10:30:34;11.20;99.90
37240;DHT22;23130;48.760;9.178;2023-03-25T10:33:05;11.50;99.90
37240;DHT22;23130;48.760;9.178;2023-03-25T10:35:41;11.60;99.90
37240;DHT22;23130;48.760;9.178;2023-03-25T10:38:18;11.50;99.90
37240;DHT22;23130;48.760;9.178;2023-03-25T10:40:47;11.50;99.90
37240;DHT22;23130;48.760;9.178;2023-03-25T10:43:43;11.70;99.90
37240;DHT22;23130;48.760;9.178;2023-03-25T10:46:26;12.10;99.90
37240;DHT22;23130;48.760;9.178;2023-03-25T10:48:53;12.20;99.90
37240;DHT22;23130;48.760;9.178;2023-03-25T10:51:22;12.30;99.90
37240;DHT22;23130;48.760;9.178;2023-03-25T10:53:51;12.30;99.90
37240;DHT22;23130;48.760;9.178;2023-03-25T10:56:24;12.20;99.90
37240;DHT22;23130;48.760;9.178;2023-03-25T10:58:55;11.90;99.90
37240;DHT22;23130;48.760;9.178;2023-03-25T11:03:56;12.00;99.90
37240;DHT22;23130;48.760;9.178;2023-03-25T11:06:26;12.10;99.90
37240;DHT22;23130;48.760;9.178;2023-03-25T11:09:14;12.10;99.90
37240;DHT22;23130;48.760;9.178;2023-03-25T11:11:41;11.90;99.90
37240;DHT22;23130;48.760;9.178;2023-03-25T11:14:08;11.90;99.90
37240;DHT22;23130;48.760;9.178;2023-03-25T11:16:43;11.90;99.90
37240;DHT22;23130;48.760;9.178;2023-03-25T11:19:21;12.00;99.90
37240;DHT22;23130;48.760;9.178;2023-03-25T11:21:53;11.90;99.90
37240;DHT22;23130;48.760;9.178;2023-03-25T11:24:20;11.80;99.90
37240;DHT22;23130;48.760;9.178;2023-03-25T11:26:48;11.80;99.90
37240;DHT22;23130;48.760;9.178;2023-03-25T11:29:19;11.80;99.90
37240;DHT22;23130;48.760;9.178;2023-03-25T11:32:04;11.80;99.90
37240;DHT22;23130;48.760;9.178;2023-03-25T11:34:30;11.90;99.90
37240;DHT22;23130;48.760;9.178;2023-03-25T11:37:17;12.00;99.90
37240;DHT22;23130;48.760;9.178;2023-03-25T11:39:51;12.10;99.90
37240;DHT22;23130;48.760;9.178;2023-03-25T11:42:38;12.20;99.90
37240;DHT22;23130;48.760;9.178;2023-03-25T11:45:05;12.10;99.90
37240;DHT22;23130;48.760;9.178;2023-03-25T11:47:37;12.10;99.90
37240;DHT22;23130;48.760;9.178;2023-03-25T11:50:04;12.20;99.90
37240;DHT22;23130;48.760;9.178;2023-03-25T11:52:44;12.30;99.90
37240;DHT22;23130;48.760;9.178;2023-03-25T11:55:36;12.40;99.90
37240;DHT22;23130;48.760;9.178;2023-03-25T11:58:05;12.60;99.90
37240;DHT22;23130;48.760;9.178;2023-03-25T12:00:39;12.60;99.90
37240;DHT22;23130;48.760;9.178;2023-03-25T12:05:37;12.60;99.90
37240;DHT22;23130;48.760;9.178;2023-03-25T12:08:13;12.60;99.90
37240;DHT22;23130;48.760;9.178;2023-03-25T12:11:04;12.70;99.90
37240;DHT22;23130;48.760;9.178;2023-03-25T12:27:02;12.70;99.90
37240;DHT22;23130;48.760;9.178;2023-03-25T12:29:49;12.80;99.90
37240;DHT22;23130;48.760;9.178;2023-03-25T12:32:44;13.00;99.90
37240;DHT22;23130;48.760;9.178;2023-03-25T12:43:39;12.50;99.90
37240;DHT22;23130;48.760;9.178;2023-03-25T12:55:02;11.00;99.90
37240;DHT22;23130;48.760;9.178;2023-03-25T13:00:23;10.30;99.90
37240;DHT22;23130;48.760;9.178;2023-03-25T13:05:53;10.10;99.90
37240;DHT22;23130;48.760;9.178;2023-03-25T13:11:32;10.30;99.90
37240;DHT22;23130;48.760;9.178;2023-03-25T13:14:06;10.40;99.90
37240;DHT22;23130;48.760;9.178;2023-03-25T13:16:35;10.50;99.90
37240;DHT22;23130;48.760;9.178;2023-03-25T13:19:15;10.80;99.90
37240;DHT22;23130;48.760;9.178;2023-03-25T13:21:50;11.00;99.90
37240;DHT22;23130;48.760;9.178;2023-03-25T13:24:56;11.20;99.90
37240;DHT22;23130;48.760;9.178;2023-03-25T13:27:16;11.30;99.90
37240;DHT22;23130;48.760;9.178;2023-03-25T13:29:50;11.50;99.90
37240;DHT22;23130;48.760;9.178;2023-03-25T13:32:28;11.70;99.90
37240;DHT22;23130;48.760;9.178;2023-03-25T13:35:10;11.80;99.90
37240;DHT22;23130;48.760;9.178;2023-03-25T13:37:47;11.90;99.90
37240;DHT22;23130;48.760;9.178;2023-03-25T13:40:22;11.90;99.90
37240;DHT22;23130;48.760;9.178;2023-03-25T13:46:06;11.60;99.90
37240;DHT22;23130;48.760;9.178;2023-03-25T13:51:17;11.40;99.90
37240;DHT22;23130;48.760;9.178;2023-03-25T14:02:19;11.50;99.90
37240;DHT22;23130;48.760;9.178;2023-03-25T14:05:23;11.40;99.90
37240;DHT22;23130;48.760;9.178;2023-03-25T14:08:00;11.20;99.90
37240;DHT22;23130;48.760;9.178;2023-03-25T14:10:49;11.10;99.90
37240;DHT22;23130;48.760;9.178;2023-03-25T14:13:26;11.10;99.90
37240;DHT22;23130;48.760;9.178;2023-03-25T14:16:00;11.10;99.90
37240;DHT22;23130;48.760;9.178;2023-03-25T14:18:28;11.10;99.90
37240;DHT22;23130;48.760;9.178;2023-03-25T14:21:42;11.10;99.90
37240;DHT22;23130;48.760;9.178;2023-03-25T14:23:42;10.90;99.90
37240;DHT22;23130;48.760;9.178;2023-03-25T14:26:09;10.50;99.90
37240;DHT22;23130;48.760;9.178;2023-03-25T14:28:37;10.40;99.90
37240;DHT22;23130;48.760;9.178;2023-03-25T14:39:09;10.40;99.90
37240;DHT22;23130;48.760;9.178;2023-03-25T14:41:58;10.40;99.90
37240;DHT22;23130;48.760;9.178;2023-03-25T14:44:25;10.50;99.90
37240;DHT22;23130;48.760;9.178;2023-03-25T14:49:51;10.70;99.90
37240;DHT22;23130;48.760;9.178;2023-03-25T14:52:44;10.90;99.90
37240;DHT22;23130;48.760;9.178;2023-03-25T14:55:21;11.00;99.90
37240;DHT22;23130;48.760;9.178;2023-03-25T14:58:02;11.20;99.90
37240;DHT22;23130;48.760;9.178;2023-03-25T15:00:32;11.30;99.90
37240;DHT22;23130;48.760;9.178;2023-03-25T15:03:07;11.40;99.90
37240;DHT22;23130;48.760;9.178;2023-03-25T15:05:36;11.50;99.90
37240;DHT22;23130;48.760;9.178;2023-03-25T15:13:20;11.70;99.90
37240;DHT22;23130;48.760;9.178;2023-03-25T15:21:09;11.90;99.90
37240;DHT22;23130;48.760;9.178;2023-03-25T15:26:36;11.60;99.90
37240;DHT22;23130;48.760;9.178;2023-03-25T15:32:10;11.70;99.90
37240;DHT22;23130;48.760;9.178;2023-03-25T15:43:33;12.40;99.90
37240;DHT22;23130;48.760;9.178;2023-03-25T15:52:05;12.20;99.90
37240;DHT22;23130;48.760;9.178;2023-03-25T15:55:07;12.20;99.90
37240;DHT22;23130;48.760;9.178;2023-03-25T15:57:41;12.10;99.90
37240;DHT22;23130;48.760;9.178;2023-03-25T16:02:48;12.10;99.90
37240;DHT22;23130;48.760;9.178;2023-03-25T16:05:15;12.20;99.90
37240;DHT22;23130;48.760;9.178;2023-03-25T16:07:42;12.20;99.90
37240;DHT22;23130;48.760;9.178;2023-03-25T16:10:18;12.10;99.90
37240;DHT22;23130;48.760;9.178;2023-03-25T16:12:46;12.10;99.90
37240;DHT22;23130;48.760;9.178;2023-03-25T16:15:17;11.90;99.90
37240;DHT22;23130;48.760;9.178;2023-03-25T16:17:45;11.80;99.90
37240;DHT22;23130;48.760;9.178;2023-03-25T16:20:16;11.70;99.90
37240;DHT22;23130;48.760;9.178;2023-03-25T16:22:51;11.70;99.90
37240;DHT22;23130;48.760;9.178;2023-03-25T16:25:21;11.70;99.90
37240;DHT22;23130;48.760;9.178;2023-03-25T16:27:53;11.70;99.90
37240;DHT22;23130;48.760;9.178;2023-03-25T16:30:32;11.70;99.90
37240;DHT22;23130;48.760;9.178;2023-03-25T16:35:35;11.50;99.90
37240;DHT22;23130;48.760;9.178;2023-03-25T16:38:01;11.40;99.90
37240;DHT22;23130;48.760;9.178;2023-03-25T16:40:30;11.30;99.90
37240;DHT22;23130;48.760;9.178;2023-03-25T16:43:04;11.20;99.90
37240;DHT22;23130;48.760;9.178;2023-03-25T16:45:31;11.20;99.90
37240;DHT22;23130;48.760;9.178;2023-03-25T16:48:02;11.20;99.90
37240;DHT22;23130;48.760;9.178;2023-03-25T16:50:29;11.10;99.90
37240;DHT22;23130;48.760;9.178;2023-03-25T16:52:55;11.20;99.90
37240;DHT22;23130;48.760;9.178;2023-03-25T16:55:32;11.10;99.90
37240;DHT22;23130;48.760;9.178;2023-03-25T16:58:14;11.10;99.90
37240;DHT22;23130;48.760;9.178;2023-03-25T17:00:41;11.10;99.90
37240;DHT22;23130;48.760;9.178;2023-03-25T17:03:15;11.10;99.90
37240;DHT22;23130;48.760;9.178;2023-03-25T17:05:59;11.10;99.90
37240;DHT22;23130;48.760;9.178;2023-03-25T17:08:26;11.00;99.90
37240;DHT22;23130;48.760;9.178;2023-03-25T17:10:55;11.00;99.90
37240;DHT22;23130;48.760;9.178;2023-03-25T17:13:26;10.90;99.90
37240;DHT22;23130;48.760;9.178;2023-03-25T17:15:54;10.90;99.90
37240;DHT22;23130;48.760;9.178;2023-03-25T17:18:24;10.80;99.90
37240;DHT22;23130;48.760;9.178;2023-03-25T17:20:54;10.80;99.90
37240;DHT22;23130;48.760;9.178;2023-03-25T17:23:35;10.60;99.90
37240;DHT22;23130;48.760;9.178;2023-03-25T17:26:10;10.50;99.90
37240;DHT22;23130;48.760;9.178;2023-03-25T17:36:28;10.30;99.90
37240;DHT22;23130;48.760;9.178;2023-03-25T17:38:55;10.20;99.90
37240;DHT22;23130;48.760;9.178;2023-03-25T17:41:27;10.00;99.90
37240;DHT22;23130;48.760;9.178;2023-03-25T17:43:54;9.90;99.90
37240;DHT22;23130;48.760;9.178;2023-03-25T17:46:30;9.90;99.90
37240;DHT22;23130;48.760;9.178;2023-03-25T17:48:57;9.80;99.90
37240;DHT22;23130;48.760;9.178;2023-03-25T17:51:28;9.90;99.90
37240;DHT22;23130;48.760;9.178;2023-03-25T17:53:55;9.80;99.90
37240;DHT22;23130;48.760;9.178;2023-03-25T17:56:24;9.70;99.90
37240;DHT22;23130;48.760;9.178;2023-03-25T17:58:58;9.70;99.90
37240;DHT22;23130;48.760;9.178;2023-03-25T18:01:24;9.70;99.90
37240;DHT22;23130;48.760;9.178;2023-03-25T18:03:51;9.60;99.90
37240;DHT22;23130;48.760;9.178;2023-03-25T18:06:17;9.50;99.90
37240;DHT22;23130;48.760;9.178;2023-03-25T18:08:42;9.50;99.90
37240;DHT22;23130;48.760;9.178;2023-03-25T18:11:09;9.50;99.90
37240;DHT22;23130;48.760;9.178;2023-03-25T18:13:35;9.70;99.90
37240;DHT22;23130;48.760;9.178;2023-03-25T18:16:01;9.70;99.90
37240;DHT22;23130;48.760;9.178;2023-03-25T18:18:27;9.80;99.90
37240;DHT22;23130;48.760;9.178;2023-03-25T18:20:53;9.80;99.90
37240;DHT22;23130;48.760;9.178;2023-03-25T18:23:21;9.80;99.90
37240;DHT22;23130;48.760;9.178;2023-03-25T18:25:47;9.80;99.90
37240;DHT22;23130;48.760;9.178;2023-03-25T18:28:13;9.80;99.90
37240;DHT22;23130;48.760;9.178;2023-03-25T18:33:10;9.80;99.90
37240;DHT22;23130;48.760;9.178;2023-03-25T18:35:36;9.70;99.90
37240;DHT22;23130;48.760;9.178;2023-03-25T18:38:02;9.60;99.90